Portada
METAR-TAF:

METAR-TAF

Aeropuertos :

Aeropuerto Internacional Ivato

Antananarivo, Madagascar

latitud: 18-48S, longitud: 047-29E, altitud: 1279 m

Observación

El informe se hizo hace 19 minutos, a las 08:30 UTC
Viento 4 kt con dirección variable
Temperatura 26°C
Humedad 48%
Presión 1021 hPa
Visibilidad 10 km o más
Nubes dispersas a una altura de 2000 ft

METAR: FMMI 180830Z VRB04KT 9999 SCT020 26/14 Q1021 NOSIG

Hora: 11:49 (08:49 UTC)

Pronóstico

El informe se hizo hace 3 horas y 49 minutos, a las 05:00 UTC
Pronóstico válido del 18 a las 06 UTC al 19 a las 12 UTC
Viento 8 kt del este-sureste
Visibilidad 10 km o más
Cielo nuboso a una altura de 1900 ft
Probabilidad 40% :
Temporalmente
del 18 a las 13 UTC al 18 a las 20 UTC
Visibilidad: 4000 m
tormenta, lluvia

TAF: FMMI 180500Z 1806/1912 12008KT 9999 BKN019 PROB40 TEMPO 1813/1820 4000 TSRA

Observaciones y pronósticos meteorológicos de más de 4000 aeropuertos (mensajes METAR y TAF).

Los puntos amarillos y rojos representan las estaciones disponibles.

Ponga el ratón en el punto deseado para ver el nombre de la estación.

Haga clic para ver las observaciones y los pronósticos meteorológicos.

Para cambiar el mapa : haga clic en los botones verdes con una cruz de color negro para hacer un zoom, en el botón verde con un guión para alejar o en las flechas verdes para mapas adyacentes.


METAR-TAF: